Terminal Aerodrome Forecast
Issued by NWS Springfield, MO

Home | Current Version | Previous Version | Text Only | Print | Product List | Glossary On
Versions: 1 2 3 4 5 6 7 8 9 10 11 12 13 14 15 16 17 18 19 20 21 22 23 24 25 26 27 28 29
257
FTUS43 KSGF 292328
TAFSGF
TAF
KSGF 292328Z 3000/3024 17010G18KT P6SM VCTS SCT040CB OVC060
      TEMPO 3000/3002 4SM TSRA OVC040CB
     FM300200 18007KT P6SM -SHRA VCTS SCT090CB
     FM300900 19008KT 4SM BR OVC015
     FM301400 22012G18KT 4SM -RA BR OVC015=

USA.gov is the U.S. government's official web portal to all federal, state and local government web resources and services.